createdAt,value
2023-02-01T00:02:58.347Z,100.00
2023-02-01T00:08:00.857Z,100.00
2023-02-01T00:13:03.313Z,100.00
2023-02-01T00:18:06.169Z,100.00
2023-02-01T00:23:10.703Z,100.00
2023-02-01T00:28:13.949Z,100.00
2023-02-01T00:33:16.452Z,100.00
2023-02-01T00:38:20.049Z,100.00
2023-02-01T00:43:22.656Z,100.00
2023-02-01T00:48:25.885Z,100.00
2023-02-01T00:53:28.427Z,100.00
2023-02-01T00:58:31.108Z,100.00
2023-02-01T01:03:35.705Z,100.00
2023-02-01T01:08:38.978Z,100.00
2023-02-01T01:13:41.960Z,100.00
2023-02-01T01:18:45.306Z,100.00
2023-02-01T01:23:48.866Z,100.00
2023-02-01T01:28:52.232Z,100.00
2023-02-01T01:33:56.987Z,100.00
2023-02-01T01:38:59.639Z,100.00
2023-02-01T01:44:03.513Z,100.00
2023-02-01T01:49:15.236Z,100.00
2023-02-01T01:54:34.320Z,100.00
2023-02-01T01:59:39.536Z,100.00
2023-02-01T02:04:42.139Z,100.00
2023-02-01T02:09:54.660Z,100.00
2023-02-01T02:15:02.450Z,100.00
2023-02-01T02:20:23.480Z,100.00
2023-02-01T02:25:50.369Z,100.00
2023-02-01T02:31:17.181Z,100.00
2023-02-01T02:36:35.916Z,100.00
2023-02-01T02:42:06.220Z,100.00
2023-02-01T02:47:27.334Z,100.00
2023-02-01T02:52:49.570Z,100.00
2023-02-01T02:58:11.454Z,100.00
2023-02-01T03:03:32.586Z,100.00
2023-02-01T03:08:35.332Z,100.00
2023-02-01T03:13:58.538Z,100.00
2023-02-01T03:19:07.027Z,100.00
2023-02-01T03:24:18.667Z,100.00
2023-02-01T03:29:30.977Z,100.00
2023-02-01T03:34:33.864Z,100.00
2023-02-01T03:40:12.634Z,100.00
2023-02-01T03:45:28.911Z,100.00
2023-02-01T03:50:37.367Z,100.00
2023-02-01T03:55:44.032Z,100.00
2023-02-01T04:00:53.116Z,100.00
2023-02-01T04:05:56.695Z,100.00
2023-02-01T04:11:02.755Z,100.00
2023-02-01T04:16:05.776Z,100.00
2023-02-01T04:21:08.440Z,100.00
2023-02-01T04:26:11.002Z,100.00
2023-02-01T04:31:13.515Z,100.00
2023-02-01T04:36:15.975Z,100.00
2023-02-01T04:41:23.815Z,100.00
2023-02-01T04:46:26.261Z,100.00
2023-02-01T04:51:28.668Z,100.00
2023-02-01T04:56:31.209Z,100.00
2023-02-01T05:01:33.960Z,100.00
2023-02-01T05:06:36.564Z,100.00
2023-02-01T05:11:58.063Z,100.00
2023-02-01T05:17:00.591Z,100.00
2023-02-01T05:22:03.273Z,100.00
2023-02-01T05:27:05.964Z,100.00
2023-02-01T05:32:21.701Z,100.00
2023-02-01T05:37:24.865Z,100.00
2023-02-01T05:42:27.276Z,100.00
2023-02-01T05:47:29.732Z,100.00
2023-02-01T05:52:32.391Z,100.00
2023-02-01T05:57:35.264Z,100.00
2023-02-01T06:02:37.903Z,100.00
2023-02-01T06:07:40.431Z,100.00
2023-02-01T06:12:43.144Z,100.00
2023-02-01T06:17:48.612Z,100.00
2023-02-01T06:22:51.473Z,100.00
2023-02-01T06:27:54.122Z,100.00
2023-02-01T06:32:56.531Z,100.00
2023-02-01T06:37:59.240Z,100.00
2023-02-01T06:43:01.723Z,100.00
2023-02-01T06:48:04.244Z,100.00
2023-02-01T06:53:06.775Z,100.00
2023-02-01T06:58:09.185Z,100.00
2023-02-01T07:03:11.551Z,100.00
2023-02-01T07:08:13.961Z,100.00
2023-02-01T07:13:21.989Z,100.00
2023-02-01T07:18:24.669Z,100.00
2023-02-01T07:23:27.825Z,100.00
2023-02-01T07:28:32.521Z,100.00
2023-02-01T07:33:35.480Z,100.00
2023-02-01T07:38:38.509Z,100.00
2023-02-01T07:43:41.054Z,100.00
2023-02-01T07:48:43.488Z,100.00
2023-02-01T07:53:46.310Z,100.00
2023-02-01T07:58:53.740Z,100.00
2023-02-01T08:04:01.345Z,100.00
2023-02-01T08:09:05.848Z,100.00
2023-02-01T08:14:08.548Z,100.00
2023-02-01T08:19:11.013Z,100.00
2023-02-01T08:24:13.494Z,100.00
2023-02-01T08:29:16.019Z,100.00
2023-02-01T08:34:18.858Z,100.00
2023-02-01T08:39:21.414Z,100.00
2023-02-01T08:44:23.878Z,100.00
2023-02-01T08:49:26.315Z,100.00
2023-02-01T08:54:28.943Z,100.00
2023-02-01T08:59:31.467Z,100.00
2023-02-01T09:04:33.944Z,100.00
2023-02-01T09:09:37.345Z,100.00
2023-02-01T09:14:39.947Z,100.00
2023-02-01T09:19:43.209Z,100.00
2023-02-01T09:24:45.932Z,100.00
2023-02-01T09:29:53.441Z,100.00
2023-02-01T09:34:56.017Z,100.00
2023-02-01T09:39:58.441Z,100.00
2023-02-01T09:45:27.015Z,100.00
2023-02-01T09:50:38.797Z,99.31
2023-02-01T09:55:48.351Z,99.24
2023-02-01T10:00:57.571Z,99.64
2023-02-01T10:06:21.701Z,100.00
2023-02-01T10:11:56.968Z,98.04
2023-02-01T10:17:17.605Z,97.37
2023-02-01T10:23:00.041Z,97.83
2023-02-01T10:28:01.449Z,92.35
2023-02-01T10:33:47.323Z,91.33
2023-02-01T10:38:50.712Z,89.97
2023-02-01T10:43:59.947Z,89.92
2023-02-01T10:49:07.624Z,88.03
2023-02-01T10:54:21.558Z,89.20
2023-02-01T10:59:28.698Z,86.55
2023-02-01T11:04:39.095Z,88.43
2023-02-01T11:09:42.744Z,89.17
2023-02-01T11:14:44.852Z,86.80
2023-02-01T11:19:56.963Z,85.89
2023-02-01T11:25:08.768Z,86.35
2023-02-01T11:30:36.098Z,86.69
2023-02-01T11:35:41.264Z,86.03
2023-02-01T11:40:43.498Z,84.46
2023-02-01T11:46:01.481Z,85.71
2023-02-01T11:51:24.410Z,86.30
2023-02-01T11:56:44.929Z,80.73
2023-02-01T12:01:56.764Z,78.27
2023-02-01T12:07:13.860Z,79.30
2023-02-01T12:12:41.958Z,82.15
2023-02-01T12:18:15.489Z,82.74
2023-02-01T12:23:37.216Z,82.64
2023-02-01T12:29:04.084Z,82.03
2023-02-01T12:34:09.824Z,82.83
2023-02-01T12:39:26.218Z,84.36
2023-02-01T12:44:44.900Z,85.26
2023-02-01T12:50:02.377Z,86.47
2023-02-01T12:55:20.861Z,85.67
2023-02-01T13:00:40.973Z,86.80
2023-02-01T13:05:57.810Z,88.38
2023-02-01T13:11:19.307Z,88.59
2023-02-01T13:16:35.289Z,87.03
2023-02-01T13:21:44.522Z,86.54
2023-02-01T13:26:48.151Z,85.22
2023-02-01T13:32:03.881Z,84.61
2023-02-01T13:37:33.621Z,87.26
2023-02-01T13:42:55.855Z,87.44
2023-02-01T13:48:02.463Z,88.63
2023-02-01T13:53:12.533Z,88.37
2023-02-01T13:58:39.081Z,90.19
2023-02-01T14:03:47.543Z,91.24
2023-02-01T14:09:15.060Z,90.19
2023-02-01T14:14:17.954Z,88.99
2023-02-01T14:19:27.824Z,89.06
2023-02-01T14:24:35.899Z,88.50
2023-02-01T14:29:44.025Z,89.46
2023-02-01T14:34:49.320Z,88.82
2023-02-01T14:39:57.138Z,88.68
2023-02-01T14:45:24.829Z,89.71
2023-02-01T14:50:33.819Z,90.73
2023-02-01T14:55:50.532Z,90.65
2023-02-01T15:00:56.908Z,91.74
2023-02-01T15:06:01.947Z,91.11
2023-02-01T15:11:17.176Z,89.92
2023-02-01T15:16:19.673Z,90.76
2023-02-01T15:21:28.931Z,92.26
2023-02-01T15:26:35.336Z,95.33
2023-02-01T15:31:48.387Z,95.24
2023-02-01T15:37:02.627Z,93.15
2023-02-01T15:42:20.976Z,92.77
2023-02-01T15:47:29.865Z,90.95
2023-02-01T15:52:43.388Z,90.52
2023-02-01T15:57:46.371Z,90.25
2023-02-01T16:03:49.440Z,88.73
2023-02-01T16:09:00.001Z,87.69
2023-02-01T16:14:02.798Z,87.64
2023-02-01T16:19:05.568Z,86.98
2023-02-01T16:24:08.481Z,87.44
2023-02-01T16:29:11.386Z,87.44
2023-02-01T16:34:18.124Z,87.13
2023-02-01T16:39:23.907Z,86.53
2023-02-01T16:44:26.554Z,86.56
2023-02-01T16:49:29.007Z,86.88
2023-02-01T16:54:31.485Z,87.17
2023-02-01T16:59:34.105Z,87.09
2023-02-01T17:04:37.084Z,87.12
2023-02-01T17:09:40.582Z,87.99
2023-02-01T17:14:43.044Z,87.86
2023-02-01T17:19:53.113Z,87.66
2023-02-01T17:24:55.568Z,87.20
2023-02-01T17:29:57.999Z,87.61
2023-02-01T17:35:00.522Z,88.44
2023-02-01T17:40:03.180Z,88.25
2023-02-01T17:45:38.361Z,88.39
2023-02-01T17:50:41.192Z,88.44
2023-02-01T17:55:45.894Z,89.63
2023-02-01T18:00:51.771Z,89.28
2023-02-01T18:05:55.965Z,89.63
2023-02-01T18:11:00.938Z,91.46
2023-02-01T18:16:04.728Z,91.92
2023-02-01T18:21:07.769Z,91.83
2023-02-01T18:26:15.770Z,92.17
2023-02-01T18:31:23.914Z,91.71
2023-02-01T18:36:27.514Z,92.19
2023-02-01T18:41:30.267Z,91.42
2023-02-01T18:46:32.825Z,91.29
2023-02-01T18:51:38.697Z,90.45
2023-02-01T18:56:42.980Z,90.04
2023-02-01T19:01:45.531Z,89.43
2023-02-01T19:06:48.069Z,89.12
2023-02-01T19:11:50.582Z,89.36
2023-02-01T19:16:54.969Z,88.83
2023-02-01T19:21:57.434Z,89.48
2023-02-01T19:27:00.040Z,90.76
2023-02-01T19:32:02.848Z,91.27
2023-02-01T19:37:07.037Z,91.36
2023-02-01T19:42:09.879Z,91.77
2023-02-01T19:47:14.655Z,91.48
2023-02-01T19:52:17.626Z,91.80
2023-02-01T19:57:20.156Z,92.86
2023-02-01T20:02:22.650Z,90.64
2023-02-01T20:07:25.489Z,90.75
2023-02-01T20:12:28.176Z,91.52
2023-02-01T20:17:32.884Z,92.32
2023-02-01T20:22:35.733Z,92.63
2023-02-01T20:27:41.965Z,93.35
2023-02-01T20:32:44.460Z,93.61
2023-02-01T20:37:48.920Z,93.63
2023-02-01T20:42:51.668Z,93.32
2023-02-01T20:47:54.285Z,92.75
2023-02-01T20:52:56.774Z,92.98
2023-02-01T20:57:59.467Z,93.67
2023-02-01T21:03:01.949Z,94.52
2023-02-01T21:08:04.722Z,95.12
2023-02-01T21:13:08.005Z,94.89
2023-02-01T21:18:11.754Z,94.28
2023-02-01T21:23:15.285Z,93.66
2023-02-01T21:28:18.013Z,93.23
2023-02-01T21:33:20.455Z,92.62
2023-02-01T21:38:23.088Z,92.34
2023-02-01T21:43:25.508Z,92.02
2023-02-01T21:48:28.228Z,93.09
2023-02-01T21:53:30.726Z,93.63
2023-02-01T21:58:33.164Z,92.22
2023-02-01T22:03:35.996Z,92.42
2023-02-01T22:08:39.119Z,91.47
2023-02-01T22:13:41.573Z,91.79
2023-02-01T22:18:44.740Z,92.74
2023-02-01T22:23:54.223Z,94.81
2023-02-01T22:28:56.907Z,97.33
2023-02-01T22:33:59.755Z,98.47
2023-02-01T22:39:02.219Z,100.00
2023-02-01T22:44:05.016Z,100.00
2023-02-01T22:49:07.610Z,100.00
2023-02-01T22:54:23.325Z,100.00
2023-02-01T22:59:25.986Z,100.00
2023-02-01T23:04:28.424Z,100.00
2023-02-01T23:09:30.877Z,100.00
2023-02-01T23:14:33.306Z,100.00
2023-02-01T23:19:35.764Z,100.00
2023-02-01T23:24:38.548Z,100.00
2023-02-01T23:29:41.123Z,100.00
2023-02-01T23:34:43.584Z,100.00
2023-02-01T23:39:46.180Z,100.00
2023-02-01T23:44:48.808Z,100.00
2023-02-01T23:49:51.271Z,100.00
